sim
Sign-in with your pilot id or email,
or register
Callsign
Passwort

Schedule Details

Flight Number: DLH714
Departure: Munich Airport (EDDM) at 14:30
Arrival: Tokyo Haneda International Airport (RJTT) at 01:55
Route: Lufthansa Passenger Schedule. Enter filed route here before submitting Pirep.

Weather Information
Getting current METAR information for EDDM 211120Z 06004KT 010V130 CAVOK 21/13 Q1017 NOSIG
Getting current METAR information for RJTT 211100Z 06007KT 9999 FEW030 24/18 Q1015 BECMG 05008KT RMK 1CU030 A3000

Schedule Frequency

Route Map